Terminal Aerodrome Forecast
Issued by NWS Buffalo, NY

Home | Current Version | Previous Version | Text Only | Print | Product List | Glossary On
Versions: 1 2 3 4 5 6 7 8 9 10 11 12 13 14 15 16 17 18 19 20 21 22 23 24
000
FTUS41 KBUF 101126
TAFBUF
TAF
KBUF 101126Z 1012/1112 VRB03KT P6SM BKN040
     FM101300 26006KT P6SM VCSH OVC030
     FM101700 26014G20KT P6SM BKN050
     FM102200 26008KT P6SM SCT050
     FM110500 24005KT 5SM -SHSN OVC025
     FM110700 22005KT 2SM -SHSN OVC015=

USA.gov is the U.S. government's official web portal to all federal, state and local government web resources and services.